sensor_id;sensor_type;location;lat;lon;timestamp;pressure;altitude;pressure_sealevel;temperature;humidity
61337;BME280;47212;41.326;2.104;2024-01-06T00:02:22;100316.66;;;10.95;81.71
61337;BME280;47212;41.326;2.104;2024-01-06T00:07:24;100305.25;;;10.88;80.20
61337;BME280;47212;41.326;2.104;2024-01-06T00:12:30;100306.63;;;10.80;78.94
61337;BME280;47212;41.326;2.104;2024-01-06T00:17:32;100304.72;;;10.75;78.43
61337;BME280;47212;41.326;2.104;2024-01-06T00:22:35;100311.81;;;10.71;77.74
61337;BME280;47212;41.326;2.104;2024-01-06T00:27:37;100305.81;;;10.69;76.75
61337;BME280;47212;41.326;2.104;2024-01-06T00:32:40;100306.34;;;10.66;76.14
61337;BME280;47212;41.326;2.104;2024-01-06T00:37:42;100312.88;;;10.65;75.73
61337;BME280;47212;41.326;2.104;2024-01-06T00:42:45;100306.09;;;10.63;76.47
61337;BME280;47212;41.326;2.104;2024-01-06T00:47:47;100308.81;;;10.58;75.35
61337;BME280;47212;41.326;2.104;2024-01-06T00:52:49;100303.66;;;10.56;75.51
61337;BME280;47212;41.326;2.104;2024-01-06T00:57:54;100297.38;;;10.56;75.66
61337;BME280;47212;41.326;2.104;2024-01-06T01:02:56;100303.09;;;10.54;74.92
61337;BME280;47212;41.326;2.104;2024-01-06T01:07:59;100308.00;;;10.52;75.08
61337;BME280;47212;41.326;2.104;2024-01-06T01:13:01;100309.09;;;10.51;74.62
61337;BME280;47212;41.326;2.104;2024-01-06T01:18:03;100297.66;;;10.49;75.15
61337;BME280;47212;41.326;2.104;2024-01-06T01:23:06;100295.75;;;10.44;75.32
61337;BME280;47212;41.326;2.104;2024-01-06T01:28:08;100299.53;;;10.38;74.39
61337;BME280;47212;41.326;2.104;2024-01-06T01:33:10;100307.16;;;10.36;74.74
61337;BME280;47212;41.326;2.104;2024-01-06T01:38:13;100305.25;;;10.37;75.29
61337;BME280;47212;41.326;2.104;2024-01-06T01:43:19;100305.25;;;10.37;75.00
61337;BME280;47212;41.326;2.104;2024-01-06T01:48:22;100323.75;;;10.35;75.35
61337;BME280;47212;41.326;2.104;2024-01-06T01:53:26;100331.34;;;10.33;75.21
61337;BME280;47212;41.326;2.104;2024-01-06T01:58:28;100343.59;;;10.30;74.88
61337;BME280;47212;41.326;2.104;2024-01-06T02:05:13;100352.84;;;10.29;74.45
61337;BME280;47212;41.326;2.104;2024-01-06T02:10:15;100342.25;;;10.28;74.49
61337;BME280;47212;41.326;2.104;2024-01-06T02:15:21;100360.72;;;10.26;74.01
61337;BME280;47212;41.326;2.104;2024-01-06T02:20:24;100359.91;;;10.20;73.71
61337;BME280;47212;41.326;2.104;2024-01-06T02:25:27;100352.25;;;10.17;73.80
61337;BME280;47212;41.326;2.104;2024-01-06T02:30:31;100352.53;;;10.15;73.71
61337;BME280;47212;41.326;2.104;2024-01-06T02:35:34;100363.94;;;10.12;74.11
61337;BME280;47212;41.326;2.104;2024-01-06T02:40:37;100360.66;;;10.10;73.03
61337;BME280;47212;41.326;2.104;2024-01-06T02:45:39;100364.75;;;10.08;73.13
61337;BME280;47212;41.326;2.104;2024-01-06T02:50:41;100357.66;;;10.02;72.18
61337;BME280;47212;41.326;2.104;2024-01-06T02:55:45;100363.09;;;10.02;71.21
61337;BME280;47212;41.326;2.104;2024-01-06T03:00:47;100355.22;;;10.00;70.67
61337;BME280;47212;41.326;2.104;2024-01-06T03:05:49;100353.84;;;9.98;70.60
61337;BME280;47212;41.326;2.104;2024-01-06T03:10:58;100354.38;;;9.95;70.34
61337;BME280;47212;41.326;2.104;2024-01-06T03:16:03;100351.91;;;9.88;70.37
61337;BME280;47212;41.326;2.104;2024-01-06T03:21:17;100366.84;;;9.80;70.13
61337;BME280;47212;41.326;2.104;2024-01-06T03:26:20;100367.91;;;9.74;69.99
61337;BME280;47212;41.326;2.104;2024-01-06T03:31:31;100357.28;;;9.68;68.65
61337;BME280;47212;41.326;2.104;2024-01-06T03:36:33;100355.34;;;9.63;69.18
61337;BME280;47212;41.326;2.104;2024-01-06T03:41:35;100353.38;;;9.53;67.68
61337;BME280;47212;41.326;2.104;2024-01-06T03:46:38;100355.81;;;9.50;68.53
61337;BME280;47212;41.326;2.104;2024-01-06T03:51:42;100359.31;;;9.45;68.57
61337;BME280;47212;41.326;2.104;2024-01-06T03:56:44;100353.84;;;9.40;68.44
61337;BME280;47212;41.326;2.104;2024-01-06T04:01:46;100347.31;;;9.36;68.49
61337;BME280;47212;41.326;2.104;2024-01-06T04:06:49;100353.84;;;9.35;68.82
61337;BME280;47212;41.326;2.104;2024-01-06T04:11:54;100349.19;;;9.31;68.29
61337;BME280;47212;41.326;2.104;2024-01-06T04:16:56;100342.94;;;9.30;67.87
61337;BME280;47212;41.326;2.104;2024-01-06T04:21:59;100347.81;;;9.28;68.06
61337;BME280;47212;41.326;2.104;2024-01-06T04:27:04;100347.78;;;9.23;67.83
61337;BME280;47212;41.326;2.104;2024-01-06T04:32:07;100343.44;;;9.22;67.92
61337;BME280;47212;41.326;2.104;2024-01-06T04:37:09;100349.94;;;9.16;67.24
61337;BME280;47212;41.326;2.104;2024-01-06T04:42:11;100347.19;;;9.11;67.41
61337;BME280;47212;41.326;2.104;2024-01-06T04:47:18;100335.50;;;9.10;67.62
61337;BME280;47212;41.326;2.104;2024-01-06T04:52:21;100346.63;;;9.09;67.16
61337;BME280;47212;41.326;2.104;2024-01-06T04:57:24;100335.22;;;9.07;66.69
61337;BME280;47212;41.326;2.104;2024-01-06T05:02:29;100350.97;;;9.10;66.88
61337;BME280;47212;41.326;2.104;2024-01-06T05:07:37;100355.59;;;9.09;66.72
61337;BME280;47212;41.326;2.104;2024-01-06T05:12:44;100343.09;;;9.08;66.61
61337;BME280;47212;41.326;2.104;2024-01-06T05:18:00;100346.06;;;9.07;66.51
61337;BME280;47212;41.326;2.104;2024-01-06T05:23:16;100347.69;;;9.08;65.94
61337;BME280;47212;41.326;2.104;2024-01-06T05:28:29;100347.41;;;9.04;65.59
61337;BME280;47212;41.326;2.104;2024-01-06T05:33:46;100354.44;;;9.00;65.31
61337;BME280;47212;41.326;2.104;2024-01-06T05:38:54;100348.44;;;8.98;65.34
61337;BME280;47212;41.326;2.104;2024-01-06T05:43:59;100349.25;;;8.93;65.15
61337;BME280;47212;41.326;2.104;2024-01-06T05:49:11;100350.56;;;8.91;65.41
61337;BME280;47212;41.326;2.104;2024-01-06T05:54:23;100365.50;;;8.88;65.17
61337;BME280;47212;41.326;2.104;2024-01-06T05:59:28;100367.66;;;8.86;65.45
61337;BME280;47212;41.326;2.104;2024-01-06T06:04:45;100379.59;;;8.85;65.67
61337;BME280;47212;41.326;2.104;2024-01-06T06:10:02;100393.66;;;8.82;65.55
61337;BME280;47212;41.326;2.104;2024-01-06T06:15:18;100402.88;;;8.81;64.96
61337;BME280;47212;41.326;2.104;2024-01-06T06:20:25;100427.31;;;8.81;65.08
61337;BME280;47212;41.326;2.104;2024-01-06T06:25:43;100444.69;;;8.80;64.18
61337;BME280;47212;41.326;2.104;2024-01-06T06:30:50;100451.75;;;8.81;64.45
61337;BME280;47212;41.326;2.104;2024-01-06T06:36:23;100454.44;;;8.81;63.55
61337;BME280;47212;41.326;2.104;2024-01-06T06:41:49;100470.47;;;8.83;63.97
61337;BME280;47212;41.326;2.104;2024-01-06T06:46:58;100468.84;;;8.82;64.36
61337;BME280;47212;41.326;2.104;2024-01-06T06:52:14;100481.59;;;8.81;63.35
61337;BME280;47212;41.326;2.104;2024-01-06T06:57:44;100487.03;;;8.81;63.61
61337;BME280;47212;41.326;2.104;2024-01-06T07:02:51;100493.22;;;8.77;62.34
61337;BME280;47212;41.326;2.104;2024-01-06T07:08:09;100506.53;;;8.78;64.16
61337;BME280;47212;41.326;2.104;2024-01-06T07:13:26;100521.47;;;8.81;63.83
61337;BME280;47212;41.326;2.104;2024-01-06T07:18:55;100528.81;;;8.80;62.89
61337;BME280;47212;41.326;2.104;2024-01-06T07:24:11;100549.44;;;8.81;63.93
61337;BME280;47212;41.326;2.104;2024-01-06T07:29:20;100549.44;;;8.81;62.95
61337;BME280;47212;41.326;2.104;2024-01-06T07:34:30;100548.13;;;8.84;63.03
61337;BME280;47212;41.326;2.104;2024-01-06T07:39:41;100553.59;;;8.89;62.50
61337;BME280;47212;41.326;2.104;2024-01-06T07:44:51;100563.38;;;8.90;61.54
61337;BME280;47212;41.326;2.104;2024-01-06T07:49:58;100576.19;;;8.94;61.18
61337;BME280;47212;41.326;2.104;2024-01-06T07:55:14;100583.25;;;8.96;61.46
61337;BME280;47212;41.326;2.104;2024-01-06T08:00:26;100586.53;;;8.98;60.44
61337;BME280;47212;41.326;2.104;2024-01-06T08:05:46;100589.56;;;9.01;61.20
61337;BME280;47212;41.326;2.104;2024-01-06T08:11:22;100602.41;;;9.11;59.77
61337;BME280;47212;41.326;2.104;2024-01-06T08:16:28;100610.50;;;10.91;56.94
61337;BME280;47212;41.326;2.104;2024-01-06T08:21:40;100618.38;;;16.71;44.92
61337;BME280;47212;41.326;2.104;2024-01-06T08:26:49;100629.50;;;20.54;39.46
61337;BME280;47212;41.326;2.104;2024-01-06T08:31:59;100626.63;;;22.83;34.12
61337;BME280;47212;41.326;2.104;2024-01-06T08:37:09;100635.66;;;24.12;31.52
61337;BME280;47212;41.326;2.104;2024-01-06T08:42:11;100643.28;;;24.59;32.69
61337;BME280;47212;41.326;2.104;2024-01-06T08:47:17;100645.16;;;25.02;31.97
61337;BME280;47212;41.326;2.104;2024-01-06T08:52:23;100649.81;;;24.98;31.75
61337;BME280;47212;41.326;2.104;2024-01-06T08:57:28;100647.41;;;24.50;30.09
61337;BME280;47212;41.326;2.104;2024-01-06T09:02:32;100664.97;;;23.82;31.80
61337;BME280;47212;41.326;2.104;2024-01-06T09:07:45;100670.06;;;23.15;32.73
61337;BME280;47212;41.326;2.104;2024-01-06T09:13:04;100667.09;;;22.39;33.56
61337;BME280;47212;41.326;2.104;2024-01-06T09:18:15;100657.19;;;21.63;33.41
61337;BME280;47212;41.326;2.104;2024-01-06T09:23:23;100673.53;;;21.06;34.43
61337;BME280;47212;41.326;2.104;2024-01-06T09:28:26;100664.22;;;20.72;36.47
61337;BME280;47212;41.326;2.104;2024-01-06T09:33:59;100663.53;;;20.37;33.27
61337;BME280;47212;41.326;2.104;2024-01-06T09:39:14;100663.09;;;19.92;36.93
61337;BME280;47212;41.326;2.104;2024-01-06T09:44:28;100666.34;;;19.42;37.88
61337;BME280;47212;41.326;2.104;2024-01-06T09:49:38;100670.25;;;18.93;36.66
61337;BME280;47212;41.326;2.104;2024-01-06T09:55:06;100679.69;;;18.61;37.15
61337;BME280;47212;41.326;2.104;2024-01-06T10:00:15;100682.84;;;18.45;39.47
61337;BME280;47212;41.326;2.104;2024-01-06T10:05:32;100679.25;;;18.36;36.46
61337;BME280;47212;41.326;2.104;2024-01-06T10:10:37;100684.53;;;18.24;39.68
61337;BME280;47212;41.326;2.104;2024-01-06T10:15:48;100689.75;;;18.12;37.79
61337;BME280;47212;41.326;2.104;2024-01-06T10:20:52;100683.69;;;18.01;39.52
61337;BME280;47212;41.326;2.104;2024-01-06T10:25:56;100694.34;;;17.94;40.01
61337;BME280;47212;41.326;2.104;2024-01-06T10:31:09;100694.66;;;17.93;39.82
61337;BME280;47212;41.326;2.104;2024-01-06T10:36:28;100694.28;;;18.08;39.62
61337;BME280;47212;41.326;2.104;2024-01-06T10:41:43;100692.53;;;18.12;38.82
61337;BME280;47212;41.326;2.104;2024-01-06T10:46:52;100687.50;;;18.14;40.02
61337;BME280;47212;41.326;2.104;2024-01-06T10:51:59;100669.53;;;18.17;38.86
61337;BME280;47212;41.326;2.104;2024-01-06T10:57:26;100689.72;;;18.26;37.94
61337;BME280;47212;41.326;2.104;2024-01-06T11:02:33;100686.34;;;18.29;38.72
61337;BME280;47212;41.326;2.104;2024-01-06T11:07:38;100685.75;;;18.40;38.24
61337;BME280;47212;41.326;2.104;2024-01-06T11:13:07;100676.84;;;18.43;36.04
61337;BME280;47212;41.326;2.104;2024-01-06T11:18:32;100678.69;;;18.57;36.07
61337;BME280;47212;41.326;2.104;2024-01-06T11:23:40;100677.81;;;18.70;37.93
61337;BME280;47212;41.326;2.104;2024-01-06T11:28:51;100665.97;;;18.69;37.75
61337;BME280;47212;41.326;2.104;2024-01-06T11:34:20;100645.41;;;18.84;36.08
61337;BME280;47212;41.326;2.104;2024-01-06T11:39:36;100635.41;;;19.05;38.65
61337;BME280;47212;41.326;2.104;2024-01-06T11:45:02;100643.38;;;19.07;36.20
61337;BME280;47212;41.326;2.104;2024-01-06T11:50:22;100627.81;;;19.11;37.52
61337;BME280;47212;41.326;2.104;2024-01-06T11:55:31;100629.56;;;19.07;38.39
61337;BME280;47212;41.326;2.104;2024-01-06T12:00:40;100622.97;;;19.17;37.62
61337;BME280;47212;41.326;2.104;2024-01-06T12:06:02;100614.38;;;19.27;35.46
61337;BME280;47212;41.326;2.104;2024-01-06T12:11:06;100615.19;;;19.36;37.59
61337;BME280;47212;41.326;2.104;2024-01-06T12:16:42;100605.31;;;19.52;34.58
61337;BME280;47212;41.326;2.104;2024-01-06T12:22:03;100599.44;;;19.62;35.41
61337;BME280;47212;41.326;2.104;2024-01-06T12:27:21;100595.72;;;19.58;36.84
61337;BME280;47212;41.326;2.104;2024-01-06T12:32:32;100586.31;;;19.59;37.34
61337;BME280;47212;41.326;2.104;2024-01-06T12:37:41;100582.72;;;19.59;36.36
61337;BME280;47212;41.326;2.104;2024-01-06T12:42:50;100585.34;;;19.55;35.50
61337;BME280;47212;41.326;2.104;2024-01-06T12:48:00;100590.00;;;19.46;35.78
61337;BME280;47212;41.326;2.104;2024-01-06T12:53:35;100592.13;;;19.49;36.92
61337;BME280;47212;41.326;2.104;2024-01-06T12:58:46;100581.09;;;19.40;35.55
61337;BME280;47212;41.326;2.104;2024-01-06T13:03:52;100578.34;;;19.32;35.89
61337;BME280;47212;41.326;2.104;2024-01-06T13:15:25;100568.75;;;19.38;36.66
61337;BME280;47212;41.326;2.104;2024-01-06T13:21:02;100552.69;;;19.40;33.97
61337;BME280;47212;41.326;2.104;2024-01-06T13:26:18;100560.97;;;19.40;36.62
61337;BME280;47212;41.326;2.104;2024-01-06T13:31:28;100553.47;;;19.40;36.26
61337;BME280;47212;41.326;2.104;2024-01-06T13:36:36;100564.19;;;19.42;36.34
61337;BME280;47212;41.326;2.104;2024-01-06T13:42:13;100549.91;;;19.40;33.79
61337;BME280;47212;41.326;2.104;2024-01-06T13:47:23;100552.19;;;19.55;35.29
61337;BME280;47212;41.326;2.104;2024-01-06T13:52:31;100551.53;;;19.50;35.05
61337;BME280;47212;41.326;2.104;2024-01-06T13:57:37;100544.72;;;19.47;35.81
61337;BME280;47212;41.326;2.104;2024-01-06T14:03:12;100560.13;;;19.48;36.06
61337;BME280;47212;41.326;2.104;2024-01-06T14:08:31;100544.25;;;19.28;36.17
61337;BME280;47212;41.326;2.104;2024-01-06T14:13:40;100548.31;;;19.13;34.92
61337;BME280;47212;41.326;2.104;2024-01-06T14:18:50;100552.81;;;19.00;35.92
61337;BME280;47212;41.326;2.104;2024-01-06T14:24:07;100562.72;;;19.01;36.81
61337;BME280;47212;41.326;2.104;2024-01-06T14:29:15;100567.25;;;18.97;36.49
61337;BME280;47212;41.326;2.104;2024-01-06T14:34:46;100569.19;;;18.88;34.80
61337;BME280;47212;41.326;2.104;2024-01-06T14:40:08;100571.28;;;18.83;35.23
61337;BME280;47212;41.326;2.104;2024-01-06T14:45:23;100572.06;;;18.74;37.20
61337;BME280;47212;41.326;2.104;2024-01-06T14:50:34;100570.44;;;18.65;37.23
61337;BME280;47212;41.326;2.104;2024-01-06T14:55:42;100563.88;;;18.52;36.12
61337;BME280;47212;41.326;2.104;2024-01-06T15:01:23;100576.63;;;18.31;36.90
61337;BME280;47212;41.326;2.104;2024-01-06T15:06:32;100580.22;;;18.09;36.84
61337;BME280;47212;41.326;2.104;2024-01-06T15:11:51;100574.44;;;17.88;36.30
61337;BME280;47212;41.326;2.104;2024-01-06T15:16:58;100581.66;;;17.75;37.71
61337;BME280;47212;41.326;2.104;2024-01-06T15:22:05;100591.69;;;17.58;37.64
61337;BME280;47212;41.326;2.104;2024-01-06T15:27:10;100591.88;;;17.39;37.84
61337;BME280;47212;41.326;2.104;2024-01-06T15:32:21;100600.34;;;17.29;38.19
61337;BME280;47212;41.326;2.104;2024-01-06T15:37:26;100607.31;;;17.12;38.96
61337;BME280;47212;41.326;2.104;2024-01-06T15:42:48;100594.13;;;16.87;38.57
61337;BME280;47212;41.326;2.104;2024-01-06T15:47:54;100596.66;;;16.56;39.54
61337;BME280;47212;41.326;2.104;2024-01-06T15:53:01;100608.13;;;16.44;40.35
61337;BME280;47212;41.326;2.104;2024-01-06T15:58:08;100610.97;;;16.39;40.82
61337;BME280;47212;41.326;2.104;2024-01-06T16:03:19;100616.06;;;16.32;39.98
61337;BME280;47212;41.326;2.104;2024-01-06T16:08:27;100617.28;;;16.26;40.50
61337;BME280;47212;41.326;2.104;2024-01-06T16:13:35;100625.19;;;16.14;41.02
61337;BME280;47212;41.326;2.104;2024-01-06T16:18:41;100627.59;;;16.02;41.19
61337;BME280;47212;41.326;2.104;2024-01-06T16:24:00;100632.84;;;15.84;41.02
61337;BME280;47212;41.326;2.104;2024-01-06T16:29:18;100638.88;;;15.68;41.34
61337;BME280;47212;41.326;2.104;2024-01-06T16:34:25;100639.88;;;15.53;41.54
61337;BME280;47212;41.326;2.104;2024-01-06T16:39:32;100647.22;;;15.39;41.56
61337;BME280;47212;41.326;2.104;2024-01-06T16:45:18;100661.16;;;15.23;40.84
61337;BME280;47212;41.326;2.104;2024-01-06T16:50:29;100663.50;;;15.11;41.96
61337;BME280;47212;41.326;2.104;2024-01-06T16:55:47;100672.16;;;15.00;41.87
61337;BME280;47212;41.326;2.104;2024-01-06T17:00:53;100665.19;;;14.88;41.62
61337;BME280;47212;41.326;2.104;2024-01-06T17:05:59;100671.81;;;14.82;41.69
61337;BME280;47212;41.326;2.104;2024-01-06T17:11:26;100680.94;;;14.73;40.88
61337;BME280;47212;41.326;2.104;2024-01-06T17:16:41;100695.81;;;14.66;42.48
61337;BME280;47212;41.326;2.104;2024-01-06T17:22:09;100688.53;;;14.57;41.21
61337;BME280;47212;41.326;2.104;2024-01-06T17:27:17;100691.59;;;14.50;42.50
61337;BME280;47212;41.326;2.104;2024-01-06T17:32:30;100691.13;;;14.43;42.53
61337;BME280;47212;41.326;2.104;2024-01-06T17:37:48;100694.47;;;14.35;41.54
61337;BME280;47212;41.326;2.104;2024-01-06T17:43:06;100697.81;;;14.27;41.96
61337;BME280;47212;41.326;2.104;2024-01-06T17:48:25;100692.69;;;14.20;42.16
61337;BME280;47212;41.326;2.104;2024-01-06T17:53:27;100703.97;;;14.14;41.82
61337;BME280;47212;41.326;2.104;2024-01-06T17:58:32;100717.69;;;14.09;41.52
61337;BME280;47212;41.326;2.104;2024-01-06T18:03:46;100719.41;;;13.99;39.96
61337;BME280;47212;41.326;2.104;2024-01-06T18:08:54;100733.13;;;13.94;41.13
61337;BME280;47212;41.326;2.104;2024-01-06T18:14:02;100747.09;;;13.93;41.09
61337;BME280;47212;41.326;2.104;2024-01-06T18:19:14;100744.13;;;13.84;41.01
61337;BME280;47212;41.326;2.104;2024-01-06T18:24:28;100735.97;;;13.74;40.48
61337;BME280;47212;41.326;2.104;2024-01-06T18:30:00;100742.63;;;13.63;39.59
61337;BME280;47212;41.326;2.104;2024-01-06T18:35:16;100745.94;;;13.55;40.19
61337;BME280;47212;41.326;2.104;2024-01-06T18:40:27;100748.16;;;13.53;39.77
61337;BME280;47212;41.326;2.104;2024-01-06T18:45:45;100750.91;;;13.48;40.31
61337;BME280;47212;41.326;2.104;2024-01-06T18:50:51;100757.25;;;13.38;40.48
61337;BME280;47212;41.326;2.104;2024-01-06T18:55:58;100755.38;;;13.28;40.32
61337;BME280;47212;41.326;2.104;2024-01-06T19:01:12;100763.03;;;13.16;40.87
61337;BME280;47212;41.326;2.104;2024-01-06T19:06:46;100767.44;;;13.07;40.43
61337;BME280;47212;41.326;2.104;2024-01-06T19:11:59;100763.09;;;13.01;41.31
61337;BME280;47212;41.326;2.104;2024-01-06T19:17:09;100770.47;;;12.95;42.06
61337;BME280;47212;41.326;2.104;2024-01-06T19:22:16;100773.47;;;12.89;42.07
61337;BME280;47212;41.326;2.104;2024-01-06T19:27:56;100775.41;;;12.78;42.38
61337;BME280;47212;41.326;2.104;2024-01-06T19:33:05;100775.16;;;12.69;43.34
61337;BME280;47212;41.326;2.104;2024-01-06T19:38:35;100786.09;;;12.64;42.52
61337;BME280;47212;41.326;2.104;2024-01-06T19:43:41;100790.19;;;12.57;43.43
61337;BME280;47212;41.326;2.104;2024-01-06T19:48:57;100787.75;;;12.55;43.03
61337;BME280;47212;41.326;2.104;2024-01-06T19:54:11;100798.66;;;12.50;43.25
61337;BME280;47212;41.326;2.104;2024-01-06T19:59:27;100804.13;;;12.45;43.51
61337;BME280;47212;41.326;2.104;2024-01-06T20:04:39;100807.69;;;12.40;43.20
61337;BME280;47212;41.326;2.104;2024-01-06T20:09:51;100803.03;;;12.31;44.06
61337;BME280;47212;41.326;2.104;2024-01-06T20:14:57;100810.41;;;12.25;43.16
61337;BME280;47212;41.326;2.104;2024-01-06T20:20:16;100805.22;;;12.19;43.65
61337;BME280;47212;41.326;2.104;2024-01-06T20:25:26;100808.16;;;12.12;43.43
61337;BME280;47212;41.326;2.104;2024-01-06T20:30:38;100802.97;;;12.05;42.85
61337;BME280;47212;41.326;2.104;2024-01-06T20:35:47;100808.44;;;12.00;42.75
61337;BME280;47212;41.326;2.104;2024-01-06T20:40:53;100815.50;;;11.96;43.20
61337;BME280;47212;41.326;2.104;2024-01-06T20:45:59;100820.94;;;11.91;42.89
61337;BME280;47212;41.326;2.104;2024-01-06T20:51:17;100828.03;;;11.87;42.98
61337;BME280;47212;41.326;2.104;2024-01-06T20:56:26;100827.47;;;11.85;43.21
61337;BME280;47212;41.326;2.104;2024-01-06T21:01:34;100824.75;;;11.80;42.61
61337;BME280;47212;41.326;2.104;2024-01-06T21:06:39;100836.69;;;11.74;42.96
61337;BME280;47212;41.326;2.104;2024-01-06T21:11:43;100828.75;;;11.67;42.80
61337;BME280;47212;41.326;2.104;2024-01-06T21:17:01;100822.47;;;11.62;42.14
61337;BME280;47212;41.326;2.104;2024-01-06T21:22:05;100826.81;;;11.58;42.29
61337;BME280;47212;41.326;2.104;2024-01-06T21:27:36;100819.16;;;11.49;41.66
61337;BME280;47212;41.326;2.104;2024-01-06T21:32:57;100817.22;;;11.45;41.73
61337;BME280;47212;41.326;2.104;2024-01-06T21:38:20;100820.75;;;11.40;41.86
61337;BME280;47212;41.326;2.104;2024-01-06T21:43:34;100812.81;;;11.34;41.94
61337;BME280;47212;41.326;2.104;2024-01-06T21:48:44;100814.13;;;11.26;42.20
61337;BME280;47212;41.326;2.104;2024-01-06T21:53:53;100807.56;;;11.22;42.17
61337;BME280;47212;41.326;2.104;2024-01-06T21:59:07;100821.72;;;11.19;42.13
61337;BME280;47212;41.326;2.104;2024-01-06T22:04:12;100826.31;;;11.13;42.69
61337;BME280;47212;41.326;2.104;2024-01-06T22:09:45;100824.91;;;11.06;42.80
61337;BME280;47212;41.326;2.104;2024-01-06T22:14:58;100822.16;;;11.01;42.54
61337;BME280;47212;41.326;2.104;2024-01-06T22:20:32;100814.47;;;10.93;42.82
61337;BME280;47212;41.326;2.104;2024-01-06T22:25:48;100796.97;;;10.78;43.09
61337;BME280;47212;41.326;2.104;2024-01-06T22:30:59;100806.72;;;10.74;43.07
61337;BME280;47212;41.326;2.104;2024-01-06T22:36:21;100805.31;;;10.67;43.48
61337;BME280;47212;41.326;2.104;2024-01-06T22:41:31;100817.81;;;10.63;43.45
61337;BME280;47212;41.326;2.104;2024-01-06T22:46:38;100823.53;;;10.61;43.91
61337;BME280;47212;41.326;2.104;2024-01-06T22:51:43;100811.22;;;10.53;43.52
61337;BME280;47212;41.326;2.104;2024-01-06T22:56:52;100829.66;;;10.46;44.26
61337;BME280;47212;41.326;2.104;2024-01-06T23:02:05;100816.25;;;10.40;43.91
61337;BME280;47212;41.326;2.104;2024-01-06T23:07:14;100822.19;;;10.37;43.67
61337;BME280;47212;41.326;2.104;2024-01-06T23:12:31;100825.69;;;10.32;44.21
61337;BME280;47212;41.326;2.104;2024-01-06T23:17:41;100824.31;;;10.30;44.09
61337;BME280;47212;41.326;2.104;2024-01-06T23:22:51;100832.16;;;10.26;44.18
61337;BME280;47212;41.326;2.104;2024-01-06T23:27:56;100833.50;;;10.24;44.02
61337;BME280;47212;41.326;2.104;2024-01-06T23:33:10;100827.00;;;10.25;44.59
61337;BME280;47212;41.326;2.104;2024-01-06T23:38:22;100832.34;;;10.19;44.15
61337;BME280;47212;41.326;2.104;2024-01-06T23:43:33;100830.72;;;10.18;44.76
61337;BME280;47212;41.326;2.104;2024-01-06T23:48:55;100829.59;;;10.14;44.32
61337;BME280;47212;41.326;2.104;2024-01-06T23:54:12;100835.53;;;10.11;44.45
61337;BME280;47212;41.326;2.104;2024-01-06T23:59:18;100835.75;;;10.05;45.13
